Time;durP1;ratioP1;P1;durP2;ratioP2;P2;SDS_P1;SDS_P2;PMS_P1;PMS_P2;Temp;Humidity;BMP_temperature;BMP_pressure;BME280_temperature;BME280_humidity;BME280_pressure;Samples;Min_cycle;Max_cycle;Signal;HPM_P1;HPM_P2
2021/05/19 00:00:59;;;;;;;6.50;5.20;;;9.70;99.80;;;;;;5042565;28;20463;-87
2021/05/19 00:03:28;;;;;;;7.30;6.27;;;9.60;99.80;;;;;;5049286;28;20853;-87
2021/05/19 00:05:55;;;;;;;5.83;5.33;;;9.60;99.80;;;;;;5060960;28;20485;-87
2021/05/19 00:08:22;;;;;;;9.70;5.50;;;9.60;99.80;;;;;;5052683;28;20480;-87
2021/05/19 00:10:51;;;;;;;5.93;5.20;;;9.60;99.80;;;;;;5052001;28;20857;-87
2021/05/19 00:13:18;;;;;;;5.67;4.93;;;9.50;99.80;;;;;;5029990;28;20473;-87
2021/05/19 00:15:46;;;;;;;5.93;5.07;;;9.50;99.80;;;;;;5036403;28;20478;-87
2021/05/19 00:18:14;;;;;;;5.40;4.90;;;9.40;99.80;;;;;;5041670;28;20467;-87
2021/05/19 00:20:42;;;;;;;6.13;5.53;;;9.40;99.80;;;;;;5039427;28;20461;-87
2021/05/19 00:23:09;;;;;;;5.30;4.90;;;9.40;99.80;;;;;;5025025;28;20471;-87
2021/05/19 00:25:53;;;;;;;5.10;4.60;;;9.40;99.80;;;;;;5047949;28;20481;-87
2021/05/19 00:28:21;;;;;;;5.37;4.87;;;9.30;99.80;;;;;;5054129;28;20474;-87
2021/05/19 00:30:52;;;;;;;5.07;4.57;;;9.30;99.80;;;;;;5058353;28;20493;-87
2021/05/19 00:33:19;;;;;;;5.03;4.60;;;9.40;99.80;;;;;;5049212;28;20467;-87
2021/05/19 00:35:47;;;;;;;4.93;4.53;;;9.40;99.80;;;;;;5063860;28;20551;-87
2021/05/19 00:38:14;;;;;;;5.17;4.73;;;9.40;99.80;;;;;;5062742;28;20465;-87
2021/05/19 00:40:42;;;;;;;5.40;4.90;;;9.50;99.80;;;;;;5062162;28;20466;-87
2021/05/19 00:43:10;;;;;;;5.63;5.20;;;9.50;99.80;;;;;;5052637;28;20468;-87
2021/05/19 00:45:38;;;;;;;5.27;4.87;;;9.50;99.80;;;;;;5051982;28;20487;-87
2021/05/19 00:48:09;;;;;;;5.50;5.00;;;9.50;99.80;;;;;;5049922;28;21002;-87
2021/05/19 00:50:38;;;;;;;5.37;4.87;;;9.60;99.80;;;;;;5052524;28;20563;-87
2021/05/19 00:53:06;;;;;;;5.00;4.60;;;9.60;99.80;;;;;;5054978;28;20480;-87
2021/05/19 00:55:34;;;;;;;5.70;5.13;;;9.60;99.80;;;;;;5065909;28;20557;-86
2021/05/19 00:58:02;;;;;;;5.83;5.23;;;9.50;99.80;;;;;;5051123;28;20981;-86
2021/05/19 01:00:33;;;;;;;5.50;5.00;;;9.50;99.80;;;;;;5047717;28;20479;-87
2021/05/19 01:03:01;;;;;;;8.30;5.60;;;9.40;99.80;;;;;;5035391;28;20457;-87
2021/05/19 01:05:34;;;;;;;5.47;5.03;;;9.30;99.80;;;;;;5062441;28;20483;-87
2021/05/19 01:10:48;;;;;;;5.67;5.17;;;9.10;99.80;;;;;;5049394;28;20464;-87
2021/05/19 01:13:16;;;;;;;6.80;5.90;;;9.00;99.80;;;;;;5057313;28;20460;-87
2021/05/19 01:15:44;;;;;;;5.97;5.37;;;8.90;99.80;;;;;;5049458;28;20508;-87
2021/05/19 01:18:12;;;;;;;6.37;5.77;;;8.90;99.80;;;;;;5057539;28;20536;-87
2021/05/19 01:20:41;;;;;;;7.47;6.50;;;8.80;99.80;;;;;;5064139;28;20495;-87
2021/05/19 01:23:09;;;;;;;6.87;5.80;;;8.80;99.80;;;;;;5057208;28;21326;-87
2021/05/19 01:25:37;;;;;;;7.50;6.57;;;8.80;99.80;;;;;;5055692;28;20834;-87
2021/05/19 01:28:07;;;;;;;10.30;5.70;;;8.70;99.80;;;;;;5052826;28;20450;-87
2021/05/19 01:30:36;;;;;;;6.30;5.70;;;8.70;99.80;;;;;;5052728;28;20460;-87
2021/05/19 01:33:04;;;;;;;6.60;6.00;;;8.60;99.80;;;;;;5055992;28;20515;-87
2021/05/19 01:35:33;;;;;;;7.90;5.83;;;8.40;99.80;;;;;;5056915;28;20467;-87
2021/05/19 01:38:00;;;;;;;5.30;4.80;;;8.40;99.80;;;;;;5057042;28;20570;-87
2021/05/19 01:40:29;;;;;;;6.73;6.03;;;8.20;99.80;;;;;;5060328;28;20472;-87
2021/05/19 01:42:56;;;;;;;5.57;4.53;;;8.20;99.80;;;;;;5066640;28;20474;-87
2021/05/19 01:45:26;;;;;;;8.07;6.17;;;8.10;99.80;;;;;;5066264;28;20483;-87
2021/05/19 01:47:55;;;;;;;6.70;6.00;;;8.10;99.80;;;;;;5047698;28;22273;-87
2021/05/19 01:50:24;;;;;;;6.63;6.03;;;8.10;99.80;;;;;;5051689;28;20549;-87
2021/05/19 01:52:54;;;;;;;6.80;6.20;;;8.10;99.80;;;;;;5052948;28;20565;-87
2021/05/19 01:55:23;;;;;;;7.47;6.77;;;8.10;99.80;;;;;;5035525;28;20467;-87
2021/05/19 01:57:52;;;;;;;7.30;6.33;;;8.10;99.80;;;;;;5049541;28;20468;-87
2021/05/19 02:00:22;;;;;;;9.27;7.27;;;8.30;99.80;;;;;;5052596;28;20470;-87
2021/05/19 02:02:55;;;;;;;12.13;7.07;;;8.40;99.80;;;;;;5064078;28;20477;-89
2021/05/19 02:05:25;;;;;;;9.07;7.23;;;8.40;99.80;;;;;;5064197;28;20565;-87
2021/05/19 02:07:52;;;;;;;7.17;6.27;;;8.40;99.80;;;;;;5060625;28;20800;-87
2021/05/19 02:10:21;;;;;;;7.67;6.60;;;8.40;99.80;;;;;;5063429;28;20475;-87
2021/05/19 02:12:49;;;;;;;6.63;5.80;;;8.30;99.80;;;;;;5064385;28;21007;-87
2021/05/19 02:15:18;;;;;;;7.67;6.33;;;8.10;99.80;;;;;;5067546;28;20476;-86
2021/05/19 02:17:47;;;;;;;10.43;6.10;;;8.10;99.80;;;;;;5031397;28;20482;-87
2021/05/19 02:20:16;;;;;;;7.10;6.37;;;8.00;99.80;;;;;;5036929;28;20475;-87
2021/05/19 02:22:44;;;;;;;7.60;6.33;;;7.80;99.80;;;;;;5037446;28;20476;-87
2021/05/19 02:25:12;;;;;;;7.70;6.93;;;7.70;99.80;;;;;;5035400;28;20856;-87
2021/05/19 02:27:40;;;;;;;6.50;5.87;;;7.60;99.80;;;;;;5041518;28;20948;-87
2021/05/19 02:30:09;;;;;;;12.63;6.40;;;7.50;99.80;;;;;;5035243;28;21251;-88
2021/05/19 02:32:38;;;;;;;9.00;6.60;;;7.50;99.80;;;;;;5025022;28;20575;-87
2021/05/19 02:35:07;;;;;;;9.70;6.73;;;7.50;99.80;;;;;;5035201;28;20472;-87
2021/05/19 02:37:35;;;;;;;8.83;7.77;;;7.50;99.80;;;;;;5059020;28;20481;-87
2021/05/19 02:40:04;;;;;;;8.60;6.97;;;7.50;99.80;;;;;;5050047;28;20470;-86
2021/05/19 02:42:32;;;;;;;8.53;7.10;;;7.40;99.80;;;;;;5059069;28;20478;-87
2021/05/19 02:44:59;;;;;;;8.33;7.07;;;7.40;99.80;;;;;;5050526;28;20463;-86
2021/05/19 02:47:27;;;;;;;7.53;6.80;;;7.30;99.80;;;;;;5049502;28;20472;-87
2021/05/19 02:49:55;;;;;;;9.47;7.40;;;7.30;99.80;;;;;;5049383;28;20473;-87
2021/05/19 02:52:23;;;;;;;9.97;7.60;;;7.20;99.80;;;;;;5048980;28;20467;-86
2021/05/19 02:54:52;;;;;;;17.13;7.83;;;7.20;99.80;;;;;;5044633;28;20573;-87
2021/05/19 02:57:19;;;;;;;9.17;7.30;;;7.20;99.80;;;;;;5036263;28;20482;-87
2021/05/19 02:59:47;;;;;;;14.30;7.87;;;7.20;99.80;;;;;;5052576;28;20541;-87
2021/05/19 03:02:14;;;;;;;10.57;8.20;;;7.20;99.80;;;;;;5031506;28;20471;-87
2021/05/19 03:04:42;;;;;;;13.80;9.83;;;7.20;99.80;;;;;;5063777;28;20484;-87
2021/05/19 03:07:10;;;;;;;14.67;9.70;;;7.20;99.80;;;;;;5053739;28;20492;-86
2021/05/19 03:09:38;;;;;;;10.77;8.40;;;7.20;99.80;;;;;;5056205;28;20953;-87
2021/05/19 03:12:06;;;;;;;13.00;9.50;;;7.20;99.80;;;;;;5050300;28;20468;-87
2021/05/19 03:14:34;;;;;;;15.20;10.07;;;7.30;99.80;;;;;;5038818;28;21018;-87
2021/05/19 03:17:02;;;;;;;15.10;10.50;;;7.30;99.80;;;;;;5047405;28;20845;-87
2021/05/19 03:19:30;;;;;;;14.47;10.80;;;7.30;99.80;;;;;;5039376;28;20455;-86
2021/05/19 03:21:58;;;;;;;17.07;10.50;;;7.30;99.80;;;;;;5031035;28;20474;-87
2021/05/19 03:24:26;;;;;;;12.73;9.50;;;7.30;99.80;;;;;;5047296;28;20488;-87
2021/05/19 03:26:53;;;;;;;14.90;10.30;;;7.30;99.80;;;;;;5043391;28;20479;-87
2021/05/19 03:29:21;;;;;;;12.27;9.43;;;7.30;99.80;;;;;;5054844;28;20460;-87
2021/05/19 03:31:48;;;;;;;12.27;9.67;;;7.30;99.80;;;;;;5057341;28;20482;-87
2021/05/19 03:34:16;;;;;;;13.87;9.63;;;7.30;99.80;;;;;;5055705;28;20470;-87
2021/05/19 03:36:44;;;;;;;12.60;9.63;;;7.30;99.80;;;;;;5066510;28;20479;-87
2021/05/19 03:39:13;;;;;;;14.47;10.10;;;7.40;99.80;;;;;;5064647;28;20463;-87
2021/05/19 03:41:43;;;;;;;16.70;11.50;;;7.40;99.80;;;;;;5051413;28;20461;-87
2021/05/19 03:44:11;;;;;;;16.27;10.37;;;7.50;99.80;;;;;;5066618;28;20478;-86
2021/05/19 03:46:39;;;;;;;15.57;10.63;;;7.50;99.80;;;;;;5059497;28;20946;-87
2021/05/19 03:49:07;;;;;;;15.97;10.73;;;7.50;99.80;;;;;;5060363;28;20578;-87
2021/05/19 03:51:35;;;;;;;14.77;11.17;;;7.60;99.80;;;;;;5051797;28;20472;-87
2021/05/19 03:54:03;;;;;;;16.97;11.43;;;7.70;99.80;;;;;;5055422;28;20476;-87
2021/05/19 03:56:31;;;;;;;12.70;9.70;;;7.80;99.80;;;;;;5057839;28;20844;-87
2021/05/19 03:58:59;;;;;;;11.57;9.80;;;7.90;99.80;;;;;;5051456;28;20487;-87
2021/05/19 04:01:27;;;;;;;16.47;9.03;;;8.00;99.80;;;;;;5041525;28;20538;-87
2021/05/19 04:03:54;;;;;;;14.10;9.37;;;8.10;99.80;;;;;;5038019;28;20474;-87
2021/05/19 04:06:24;;;;;;;12.33;9.53;;;8.10;99.80;;;;;;5035250;28;20480;-87
2021/05/19 04:08:52;;;;;;;10.70;8.73;;;8.10;99.80;;;;;;5036948;28;20474;-87
2021/05/19 04:11:20;;;;;;;11.20;8.20;;;8.10;99.80;;;;;;5040690;28;20503;-87
2021/05/19 04:13:47;;;;;;;11.30;8.80;;;8.20;99.80;;;;;;5015117;28;20471;-87
2021/05/19 04:16:16;;;;;;;11.20;8.70;;;8.20;99.80;;;;;;5022169;28;20499;-87
2021/05/19 04:18:43;;;;;;;13.20;8.53;;;8.20;99.80;;;;;;5026140;28;21038;-87
2021/05/19 04:21:11;;;;;;;11.33;8.47;;;8.20;99.80;;;;;;5041431;28;20474;-87
2021/05/19 04:23:39;;;;;;;12.67;8.57;;;8.20;99.80;;;;;;5034167;28;20469;-88
2021/05/19 04:26:08;;;;;;;9.97;7.60;;;8.20;99.80;;;;;;5026238;28;21480;-87
2021/05/19 04:28:35;;;;;;;11.30;8.57;;;8.10;99.80;;;;;;5044090;28;20472;-88
2021/05/19 04:31:03;;;;;;;10.60;7.40;;;8.10;99.80;;;;;;5037146;28;21295;-87
2021/05/19 04:33:31;;;;;;;13.13;8.70;;;8.10;99.80;;;;;;5025056;28;21039;-87
2021/05/19 04:35:59;;;;;;;12.03;7.57;;;8.10;99.80;;;;;;5039830;28;20487;-87
2021/05/19 04:38:26;;;;;;;15.50;8.60;;;8.00;99.80;;;;;;5061928;28;20467;-87
2021/05/19 04:40:54;;;;;;;10.80;8.53;;;8.00;99.80;;;;;;5017977;28;20469;-88
2021/05/19 04:43:22;;;;;;;12.67;8.83;;;8.00;99.80;;;;;;5042154;28;20470;-88
2021/05/19 04:45:49;;;;;;;10.40;8.20;;;8.00;99.80;;;;;;5044030;28;20492;-88
2021/05/19 04:48:17;;;;;;;11.57;8.10;;;8.10;99.80;;;;;;5036477;28;20540;-88
2021/05/19 04:50:45;;;;;;;13.03;9.63;;;8.10;99.80;;;;;;5046767;28;20481;-87
2021/05/19 04:53:14;;;;;;;11.43;9.40;;;8.20;99.80;;;;;;5033953;28;20459;-86
2021/05/19 04:55:41;;;;;;;11.63;8.97;;;8.20;99.80;;;;;;5022997;28;20480;-87
2021/05/19 04:58:09;;;;;;;12.10;9.67;;;8.30;99.80;;;;;;5033946;28;20502;-87
2021/05/19 05:00:37;;;;;;;9.93;8.70;;;8.30;99.80;;;;;;5033492;28;20839;-87
2021/05/19 05:03:05;;;;;;;11.20;8.87;;;8.40;99.80;;;;;;5045009;28;20467;-87
2021/05/19 05:05:33;;;;;;;14.17;9.93;;;8.40;99.80;;;;;;5053276;28;20484;-87
2021/05/19 05:08:01;;;;;;;15.87;10.40;;;8.40;99.80;;;;;;5050059;28;20459;-87
2021/05/19 05:10:28;;;;;;;14.73;9.67;;;8.50;99.80;;;;;;5051301;28;20521;-87
2021/05/19 05:12:56;;;;;;;12.67;9.50;;;8.50;99.80;;;;;;5044690;28;20549;-88
2021/05/19 05:15:23;;;;;;;13.70;10.00;;;8.50;99.80;;;;;;5045667;28;20475;-87
2021/05/19 05:17:51;;;;;;;12.53;10.13;;;8.60;99.80;;;;;;5051352;28;20479;-85
2021/05/19 05:20:19;;;;;;;11.67;9.30;;;8.70;99.80;;;;;;5032747;28;20489;-87
2021/05/19 05:22:47;;;;;;;15.17;11.40;;;8.80;99.80;;;;;;5043105;28;20896;-85
2021/05/19 05:25:17;;;;;;;14.10;11.13;;;8.90;99.80;;;;;;5062722;28;20478;-86
2021/05/19 05:27:47;;;;;;;12.97;9.97;;;9.00;99.80;;;;;;5045742;28;20546;-85
2021/05/19 05:30:16;;;;;;;15.13;10.40;;;9.10;99.80;;;;;;5025090;28;20513;-89
2021/05/19 05:32:44;;;;;;;13.27;10.50;;;9.20;99.80;;;;;;5050839;28;20475;-89
2021/05/19 05:35:12;;;;;;;13.07;9.33;;;9.40;99.80;;;;;;5029211;28;20465;-86
2021/05/19 05:37:40;;;;;;;12.00;9.40;;;9.50;99.80;;;;;;5028753;28;20481;-85
2021/05/19 05:40:09;;;;;;;13.77;10.17;;;9.70;99.80;;;;;;5030189;28;20468;-85
2021/05/19 05:42:37;;;;;;;14.00;9.07;;;9.80;99.80;;;;;;5046028;28;20465;-84
2021/05/19 05:45:07;;;;;;;12.00;9.17;;;9.90;99.80;;;;;;5050381;28;20999;-85
2021/05/19 05:47:35;;;;;;;11.83;9.50;;;9.90;99.80;;;;;;5056128;28;21038;-85
2021/05/19 05:50:04;;;;;;;13.07;10.00;;;10.00;99.80;;;;;;5061327;28;20465;-85
2021/05/19 05:52:32;;;;;;;16.63;9.50;;;10.00;99.80;;;;;;5056922;28;20546;-85
2021/05/19 05:55:00;;;;;;;11.97;10.67;;;10.10;99.80;;;;;;5061294;28;20524;-87
2021/05/19 05:57:28;;;;;;;12.03;9.67;;;10.10;99.80;;;;;;5055816;28;20459;-89
2021/05/19 05:59:56;;;;;;;13.63;9.67;;;10.10;99.80;;;;;;5031090;28;20473;-87
2021/05/19 06:02:23;;;;;;;11.17;8.83;;;10.20;99.80;;;;;;5032045;28;20462;-85
2021/05/19 06:04:51;;;;;;;10.97;8.40;;;10.30;99.80;;;;;;5033301;28;20545;-85
2021/05/19 06:07:18;;;;;;;11.50;8.80;;;10.40;99.80;;;;;;5045386;28;20488;-85
2021/05/19 06:09:51;;;;;;;10.00;8.17;;;10.50;99.80;;;;;;5056672;28;20524;-85
2021/05/19 06:12:19;;;;;;;11.87;9.70;;;10.60;99.80;;;;;;5031170;28;20472;-85
2021/05/19 06:14:47;;;;;;;12.60;9.93;;;10.70;99.80;;;;;;5030409;28;20486;-85
2021/05/19 06:17:16;;;;;;;12.50;8.50;;;10.80;99.80;;;;;;5039960;28;20476;-85
2021/05/19 06:19:44;;;;;;;9.27;8.10;;;10.90;99.80;;;;;;5042583;28;20500;-85
2021/05/19 06:22:11;;;;;;;11.37;9.20;;;11.00;99.80;;;;;;5040093;28;20489;-84
2021/05/19 06:24:39;;;;;;;12.57;9.20;;;11.60;99.80;;;;;;5039658;28;20478;-84
2021/05/19 06:27:07;;;;;;;9.67;8.67;;;11.60;99.80;;;;;;5057850;28;20582;-85
2021/05/19 06:29:34;;;;;;;12.73;9.80;;;11.80;99.80;;;;;;5050177;28;20493;-85
2021/05/19 06:32:02;;;;;;;12.83;9.10;;;12.00;99.80;;;;;;5046805;28;20912;-84
2021/05/19 06:34:31;;;;;;;10.07;8.70;;;12.00;99.80;;;;;;5056034;28;20475;-85
2021/05/19 06:36:59;;;;;;;14.60;8.73;;;12.00;99.80;;;;;;5042616;28;20487;-85
2021/05/19 06:39:26;;;;;;;8.90;7.97;;;11.90;99.80;;;;;;5022430;28;20469;-84
2021/05/19 06:41:54;;;;;;;10.90;8.40;;;11.90;99.80;;;;;;5038478;28;20478;-85
2021/05/19 06:44:21;;;;;;;11.90;8.60;;;11.70;99.80;;;;;;5043741;28;20463;-84
2021/05/19 06:46:50;;;;;;;11.70;9.10;;;11.60;99.80;;;;;;5029683;28;20464;-83
2021/05/19 06:49:18;;;;;;;10.70;9.27;;;11.50;99.80;;;;;;5041080;28;20556;-83
2021/05/19 06:51:46;;;;;;;11.50;9.13;;;11.40;99.80;;;;;;5039104;28;20467;-83
2021/05/19 06:54:14;;;;;;;11.17;9.17;;;11.40;99.80;;;;;;5036937;28;20508;-83
2021/05/19 06:56:44;;;;;;;11.87;8.77;;;11.40;99.80;;;;;;5024262;28;20543;-83
2021/05/19 06:59:13;;;;;;;12.23;9.93;;;11.60;99.80;;;;;;5040299;28;20882;-83
2021/05/19 07:01:41;;;;;;;12.23;9.10;;;11.70;99.80;;;;;;5017307;28;20473;-83
2021/05/19 07:04:09;;;;;;;10.87;8.80;;;11.70;99.80;;;;;;5029102;28;21894;-83
2021/05/19 07:06:36;;;;;;;14.40;8.90;;;11.70;99.80;;;;;;5045733;28;20474;-83
2021/05/19 07:09:06;;;;;;;11.43;8.07;;;11.70;99.80;;;;;;5049421;28;20479;-83
2021/05/19 07:11:34;;;;;;;11.00;9.10;;;11.70;99.80;;;;;;5034927;28;20477;-83
2021/05/19 07:14:03;;;;;;;15.93;9.03;;;11.80;99.80;;;;;;5047763;28;20475;-83
2021/05/19 07:16:34;;;;;;;14.20;8.40;;;12.00;99.80;;;;;;5036848;28;20485;-83
2021/05/19 07:19:01;;;;;;;14.03;8.40;;;12.20;99.80;;;;;;5026365;28;20840;-83
2021/05/19 07:21:29;;;;;;;13.20;9.67;;;12.30;99.80;;;;;;5040844;28;20477;-83
2021/05/19 07:23:57;;;;;;;16.50;9.20;;;12.50;99.80;;;;;;5044933;28;20506;-83
2021/05/19 07:26:27;;;;;;;8.20;6.97;;;12.60;99.80;;;;;;5044367;28;20905;-83
2021/05/19 07:28:55;;;;;;;11.27;8.57;;;12.80;99.80;;;;;;5041179;28;20939;-83
2021/05/19 07:31:22;;;;;;;10.70;8.03;;;12.90;99.80;;;;;;5033962;28;20860;-82
2021/05/19 07:33:50;;;;;;;8.40;7.50;;;13.20;99.80;;;;;;5066478;28;20891;-82
2021/05/19 07:36:18;;;;;;;8.40;7.27;;;13.20;99.80;;;;;;5027801;28;20577;-84
2021/05/19 07:38:45;;;;;;;8.60;7.70;;;13.30;99.80;;;;;;5052073;28;20474;-83
2021/05/19 07:41:13;;;;;;;8.13;7.33;;;13.30;99.80;;;;;;5045786;28;20520;-82
2021/05/19 07:43:41;;;;;;;10.00;7.70;;;13.30;99.80;;;;;;5033958;28;20478;-83
2021/05/19 07:46:09;;;;;;;10.57;7.63;;;13.30;99.80;;;;;;5039977;28;20499;-82
2021/05/19 07:48:35;;;;;;;10.40;8.70;;;13.30;99.80;;;;;;5039441;28;20833;-83
2021/05/19 07:51:02;;;;;;;8.60;7.73;;;13.30;99.80;;;;;;5046858;28;20475;-83
2021/05/19 07:53:28;;;;;;;8.10;7.10;;;13.30;99.80;;;;;;5038706;28;20482;-83
2021/05/19 07:55:58;;;;;;;8.60;7.20;;;13.30;99.80;;;;;;5049199;28;20474;-83
2021/05/19 07:58:30;;;;;;;8.70;7.17;;;13.30;99.80;;;;;;5057750;28;20909;-83
2021/05/19 08:01:07;;;;;;;7.20;6.53;;;13.20;99.80;;;;;;5040570;28;20508;-85
2021/05/19 08:03:33;;;;;;;10.47;6.93;;;13.20;99.80;;;;;;5028352;28;20526;-86
2021/05/19 08:06:00;;;;;;;8.07;7.03;;;13.40;99.80;;;;;;5050749;28;20475;-86
2021/05/19 08:08:26;;;;;;;10.70;7.70;;;13.50;99.80;;;;;;5035746;28;20474;-86
2021/05/19 08:10:52;;;;;;;7.70;6.53;;;13.70;99.80;;;;;;5037145;28;21012;-86
2021/05/19 08:13:19;;;;;;;7.63;6.93;;;13.80;99.80;;;;;;5031824;28;20483;-86
2021/05/19 08:15:45;;;;;;;8.20;7.07;;;13.90;99.80;;;;;;5037063;28;20474;-86
2021/05/19 08:18:13;;;;;;;6.63;5.80;;;14.00;99.80;;;;;;5046363;28;20477;-86
2021/05/19 08:20:41;;;;;;;8.43;6.53;;;14.00;99.80;;;;;;5065435;28;20565;-86
2021/05/19 08:23:08;;;;;;;8.93;6.47;;;14.10;99.80;;;;;;5060326;28;20494;-86
2021/05/19 08:25:36;;;;;;;8.20;7.30;;;14.30;99.80;;;;;;5036436;28;20888;-85
2021/05/19 08:28:04;;;;;;;7.40;6.70;;;14.70;99.80;;;;;;5048294;28;20470;-85
2021/05/19 08:30:31;;;;;;;9.00;8.10;;;15.00;99.80;;;;;;5038778;28;20514;-85
2021/05/19 08:32:59;;;;;;;9.63;7.23;;;15.20;99.80;;;;;;5040803;28;21078;-85
2021/05/19 08:35:27;;;;;;;7.50;6.80;;;15.10;99.80;;;;;;5047712;28;20571;-85
2021/05/19 08:37:55;;;;;;;7.80;6.63;;;15.20;98.70;;;;;;5056418;28;20481;-85
2021/05/19 08:40:22;;;;;;;9.10;7.07;;;15.40;99.80;;;;;;5034135;28;21112;-85
2021/05/19 08:42:50;;;;;;;7.63;6.90;;;15.80;99.80;;;;;;5056505;28;20483;-85
2021/05/19 08:45:18;;;;;;;7.53;6.17;;;15.90;99.80;;;;;;5056619;28;20905;-85
2021/05/19 08:47:48;;;;;;;7.10;6.40;;;15.80;99.70;;;;;;5050419;28;20497;-85
2021/05/19 08:50:16;;;;;;;12.07;7.50;;;15.80;99.70;;;;;;5063166;28;20981;-85
2021/05/19 08:52:46;;;;;;;7.90;6.57;;;15.70;99.80;;;;;;5057887;28;20512;-87
2021/05/19 08:55:17;;;;;;;8.40;6.30;;;15.50;99.80;;;;;;5048045;28;20537;-87
2021/05/19 08:57:45;;;;;;;7.60;6.70;;;15.40;99.80;;;;;;5053229;28;20466;-87
2021/05/19 09:00:14;;;;;;;6.57;5.97;;;15.40;99.80;;;;;;5030531;28;20472;-88
2021/05/19 09:03:03;;;;;;;6.43;5.77;;;15.40;99.80;;;;;;5048370;28;20480;-87
2021/05/19 09:05:31;;;;;;;8.17;5.20;;;15.50;99.00;;;;;;5018014;28;20480;-87
2021/05/19 09:08:04;;;;;;;8.43;7.73;;;15.60;98.80;;;;;;5025963;28;20470;-87
2021/05/19 09:10:32;;;;;;;9.60;6.73;;;15.90;98.40;;;;;;5014773;28;21307;-87
2021/05/19 09:13:00;;;;;;;6.73;5.30;;;16.00;96.90;;;;;;5034926;28;20484;-87
2021/05/19 09:15:46;;;;;;;6.20;5.70;;;16.00;96.00;;;;;;5050876;28;20573;-87
2021/05/19 09:18:13;;;;;;;6.07;5.57;;;16.10;98.40;;;;;;5053913;28;20475;-87
2021/05/19 09:20:45;;;;;;;8.50;5.40;;;16.20;95.50;;;;;;5062679;28;20493;-87
2021/05/19 09:23:19;;;;;;;6.40;5.80;;;16.30;95.30;;;;;;5053933;28;20471;-87
2021/05/19 09:26:05;;;;;;;6.70;5.30;;;16.20;94.00;;;;;;5056771;28;20581;-87
2021/05/19 09:28:34;;;;;;;5.73;5.00;;;16.50;94.60;;;;;;5033227;28;20468;-86
2021/05/19 09:31:02;;;;;;;5.37;4.93;;;16.40;92.60;;;;;;5049303;28;20484;-87
2021/05/19 09:33:30;;;;;;;7.23;4.90;;;16.40;92.60;;;;;;5031694;28;20460;-87
2021/05/19 09:36:16;;;;;;;8.17;5.90;;;16.10;93.90;;;;;;5038195;28;20892;-86
2021/05/19 09:38:47;;;;;;;5.60;5.00;;;15.80;95.30;;;;;;5039288;28;20456;-87
2021/05/19 09:41:23;;;;;;;5.80;4.57;;;15.50;96.50;;;;;;5039938;28;20483;-85
2021/05/19 09:43:55;;;;;;;7.00;6.40;;;14.90;99.80;;;;;;5028663;28;20477;-85
2021/05/19 09:46:27;;;;;;;6.17;5.57;;;14.90;99.80;;;;;;5034619;28;20473;-85
2021/05/19 09:49:15;;;;;;;13.27;6.70;;;14.60;99.80;;;;;;5053215;28;20548;-87
2021/05/19 09:51:44;;;;;;;10.33;6.80;;;14.30;99.80;;;;;;5054418;28;20467;-86
2021/05/19 09:54:27;;;;;;;11.40;7.37;;;14.10;99.80;;;;;;5056988;28;20486;-85
2021/05/19 09:56:56;;;;;;;8.97;6.33;;;13.90;99.80;;;;;;5053613;28;20571;-86
2021/05/19 09:59:24;;;;;;;6.00;5.47;;;13.80;99.80;;;;;;5042719;28;20557;-86
2021/05/19 10:01:53;;;;;;;6.70;6.00;;;13.80;99.80;;;;;;5045638;28;20466;-83
2021/05/19 10:04:24;;;;;;;4.70;4.27;;;14.00;99.80;;;;;;5031627;28;20481;-83
2021/05/19 10:06:52;;;;;;;4.80;4.20;;;14.20;99.80;;;;;;5032889;28;20573;-84
2021/05/19 10:09:26;;;;;;;3.90;3.50;;;14.40;99.80;;;;;;5026761;28;20490;-84
2021/05/19 10:11:54;;;;;;;4.00;3.40;;;14.60;99.80;;;;;;5033485;28;20560;-84
2021/05/19 10:14:22;;;;;;;2.97;2.77;;;14.70;99.80;;;;;;5049826;28;20470;-83
2021/05/19 10:16:54;;;;;;;3.47;2.40;;;14.70;99.80;;;;;;5055341;28;20551;-83
2021/05/19 10:19:27;;;;;;;2.87;2.57;;;14.60;99.80;;;;;;5031796;28;20475;-83
2021/05/19 10:21:58;;;;;;;3.00;2.80;;;14.30;99.80;;;;;;5053403;28;20546;-83
2021/05/19 10:24:48;;;;;;;3.63;3.33;;;14.10;99.80;;;;;;5040932;28;21007;-83
2021/05/19 10:27:18;;;;;;;3.40;3.10;;;13.90;99.80;;;;;;5044643;28;20498;-83
2021/05/19 10:29:55;;;;;;;8.30;3.50;;;13.60;99.80;;;;;;5058369;28;20474;-83
2021/05/19 10:32:29;;;;;;;4.83;3.33;;;13.30;99.80;;;;;;5046108;28;20501;-83
2021/05/19 10:34:59;;;;;;;4.17;3.33;;;12.90;99.80;;;;;;5056173;28;20493;-82
2021/05/19 10:37:35;;;;;;;9.57;4.10;;;12.70;99.80;;;;;;5055504;28;20482;-83
2021/05/19 10:40:29;;;;;;;4.43;4.03;;;12.60;99.80;;;;;;5060464;28;20851;-83
2021/05/19 10:43:00;;;;;;;4.53;3.73;;;12.50;99.80;;;;;;5050748;28;20551;-83
2021/05/19 10:45:28;;;;;;;3.83;3.43;;;12.40;99.80;;;;;;5048955;28;20483;-83
2021/05/19 10:47:56;;;;;;;3.80;3.50;;;12.50;99.80;;;;;;5039121;28;20471;-83
2021/05/19 10:50:31;;;;;;;4.80;3.50;;;12.60;99.80;;;;;;5030815;28;20471;-83
2021/05/19 10:58:43;;;;;;;4.13;3.37;;;13.40;99.80;;;;;;5040476;28;20512;-81
2021/05/19 11:01:12;;;;;;;5.23;2.73;;;14.30;99.80;;;;;;5046908;28;21029;-82
2021/05/19 11:03:40;;;;;;;2.40;2.20;;;15.30;99.80;;;;;;5077260;28;20475;-84
2021/05/19 11:06:12;;;;;;;2.10;1.73;;;16.00;99.80;;;;;;5056036;28;20481;-83
2021/05/19 11:08:40;;;;;;;2.37;2.13;;;16.70;99.80;;;;;;5062126;28;20455;-83
2021/05/19 11:11:18;;;;;;;3.53;1.67;;;17.20;99.80;;;;;;5057675;28;20484;-83
2021/05/19 11:14:12;;;;;;;2.13;2.03;;;17.40;94.20;;;;;;5024876;28;20545;-83
2021/05/19 11:16:53;;;;;;;2.03;1.80;;;17.70;95.60;;;;;;5033644;28;20503;-83
2021/05/19 11:19:32;;;;;;;2.03;1.93;;;18.10;95.60;;;;;;5020533;28;21027;-83
2021/05/19 11:22:02;;;;;;;2.17;1.97;;;18.30;94.40;;;;;;5015991;28;20473;-83
2021/05/19 11:24:30;;;;;;;1.83;1.70;;;18.40;96.40;;;;;;5024199;28;21012;-84
2021/05/19 11:26:58;;;;;;;1.80;1.70;;;18.30;92.50;;;;;;5024096;28;20992;-84
2021/05/19 11:29:26;;;;;;;3.40;2.20;;;18.30;93.10;;;;;;5009171;28;20483;-83
2021/05/19 11:31:54;;;;;;;2.70;1.97;;;18.40;95.50;;;;;;5023588;28;20485;-83
2021/05/19 11:34:22;;;;;;;2.10;1.90;;;18.50;90.90;;;;;;5042826;28;20646;-83
2021/05/19 11:36:57;;;;;;;1.97;1.57;;;18.70;92.90;;;;;;5068282;28;20534;-83
2021/05/19 11:39:32;;;;;;;2.07;1.60;;;19.00;83.30;;;;;;5058251;28;20517;-83
2021/05/19 11:42:23;;;;;;;1.80;1.70;;;19.30;88.10;;;;;;5038562;28;20469;-83
2021/05/19 11:44:54;;;;;;;2.50;1.50;;;19.60;87.10;;;;;;5033063;28;20502;-83
2021/05/19 11:47:24;;;;;;;2.13;1.10;;;20.00;86.40;;;;;;5031945;28;20597;-85
2021/05/19 11:50:06;;;;;;;1.30;1.20;;;20.30;81.50;;;;;;5050524;28;21047;-85
2021/05/19 11:52:43;;;;;;;1.50;1.30;;;20.40;80.60;;;;;;5045079;28;20478;-85
2021/05/19 11:55:34;;;;;;;2.13;1.43;;;20.40;83.10;;;;;;5031585;28;20477;-85
2021/05/19 11:58:18;;;;;;;1.53;1.10;;;20.50;80.00;;;;;;5040711;28;20480;-85
2021/05/19 12:00:49;;;;;;;1.43;1.30;;;20.40;77.30;;;;;;5014183;28;20467;-84
2021/05/19 12:03:18;;;;;;;1.40;1.20;;;20.70;85.10;;;;;;5035384;28;20882;-85
2021/05/19 12:05:59;;;;;;;2.60;1.30;;;22.20;76.50;;;;;;5013146;28;20480;-84
2021/05/19 12:08:37;;;;;;;1.83;1.27;;;24.40;73.00;;;;;;5035294;28;20566;-85
2021/05/19 12:11:06;;;;;;;1.97;1.20;;;27.50;63.10;;;;;;5043407;28;20497;-87
2021/05/19 12:13:37;;;;;;;1.13;0.93;;;29.00;58.60;;;;;;5055676;28;21226;-87
2021/05/19 12:16:06;;;;;;;1.40;0.90;;;30.20;54.80;;;;;;5046941;28;20642;-86
2021/05/19 12:18:34;;;;;;;5.50;1.00;;;30.70;53.50;;;;;;5070646;28;20465;-88
2021/05/19 12:21:08;;;;;;;3.43;0.87;;;31.00;52.40;;;;;;5075331;28;20565;-88
2021/05/19 12:23:37;;;;;;;1.60;0.77;;;31.60;50.40;;;;;;5061798;28;20838;-87
2021/05/19 12:26:04;;;;;;;1.30;1.20;;;32.00;54.80;;;;;;5050662;28;20493;-87
2021/05/19 12:28:34;;;;;;;1.90;0.70;;;32.40;52.70;;;;;;5046376;28;20906;-86
2021/05/19 12:31:02;;;;;;;1.00;0.73;;;32.50;47.50;;;;;;5011411;28;20487;-88
2021/05/19 12:33:38;;;;;;;1.10;0.80;;;32.70;50.70;;;;;;5040430;28;20474;-87
2021/05/19 12:36:06;;;;;;;3.17;0.83;;;32.10;47.80;;;;;;5032721;28;20477;-87
2021/05/19 12:38:45;;;;;;;1.43;0.90;;;30.30;51.00;;;;;;5022921;28;20497;-87
2021/05/19 12:41:13;;;;;;;3.43;1.13;;;;;;;;;;5034863;28;20481;-86
2021/05/19 12:43:41;;;;;;;1.50;0.97;;;26.50;55.10;;;;;;5048694;28;20546;-85
2021/05/19 12:46:13;;;;;;;2.20;0.83;;;26.10;61.50;;;;;;5056581;28;20481;-86
2021/05/19 12:48:53;;;;;;;1.60;1.07;;;26.10;60.90;;;;;;5057987;28;20458;-87
2021/05/19 12:51:21;;;;;;;2.20;1.10;;;26.40;55.10;;;;;;5033742;28;20571;-86
2021/05/19 12:53:55;;;;;;;2.60;0.90;;;26.50;56.50;;;;;;5049427;28;20482;-86
2021/05/19 12:56:25;;;;;;;1.73;0.80;;;26.40;52.90;;;;;;5045253;28;20546;-85
2021/05/19 12:58:56;;;;;;;6.53;0.70;;;26.40;52.90;;;;;;5058841;28;20554;-86
2021/05/19 13:01:24;;;;;;;1.10;0.70;;;25.50;57.10;;;;;;5023291;28;21930;-86
2021/05/19 13:03:53;;;;;;;2.10;0.80;;;24.10;59.60;;;;;;5023171;28;20463;-85
2021/05/19 13:06:26;;;;;;;3.00;1.00;;;23.20;60.80;;;;;;5024301;28;20475;-86
2021/05/19 13:08:57;;;;;;;1.40;1.00;;;22.50;60.00;;;;;;5036914;28;20466;-87